Muscle Shoals, AL

7:49 AM CDT on May 06, 2015 (GMT -0500)
Cottonwood | | Change Station
CLOSE
Current Station
Personal Weather Station
Location: Muscle Shoals, AL
Elevation: 530 ft
Nearby Weather Stations

Elev 530 ft 34.74 °N, 87.64 °W | Updated 34 seconds ago

Clear
Clear
68.7 °F
Feels Like 68.7 °F
N
2.7
Wind Variable Wind from SSW
Gusts 3.2 mph

Today
High -- | Low -- °F
--% Chance of Precip.
Yesterday
High -- | Low -- °F
Precip. -- in
5:55 AM 7:39 PM
Waning Gibbous, 94% visible
Pressure 30.19 in
Visibility 9.0 miles
Clouds Clear
Dew Point 60 °F
Humidity 74%
Rainfall 0.00 in
Snow Depth Not available.
UV 1 out of 12
Pollen 8.00 out of 12
Air Quality Not available.
Flu Activity Sporadic
METAR KMSL 061153Z AUTO 09004KT 9SM CLR 16/13 A3020 RMK AO2 SLP223 T01560133 10161 20122 51006

More Conditions Fewer Conditions

Pressure 30.19 in
Visibility 9.0 miles
Clouds Clear
Dew Point 60 °F
Humidity 74%
Rainfall 0.00 in
Snow Depth Not available.
UV 1 out of 12
Pollen 8.00 out of 12
Air Quality Not available.
Flu Activity Sporadic
METAR KMSL 061153Z AUTO 09004KT 9SM CLR 16/13 A3020 RMK AO2 SLP223 T01560133 10161 20122 51006

More Conditions Fewer Conditions

10-Day Weather Forecast

Almanac

Astronomy

May. 06, 2015 Rise Set
Actual Time
Civil Twilight
Nautical Twilight
Astronomical Twilight
Moon
Length of Visible Light
Length of Day
Tomorrow will be .
, % of the Moon is Illuminated

Today's Extremes

State Highs State Lows

Community

WunderPhotos

Upload Photos

1,818,884 photos uploaded!

WunderBlogs® & News

Nearby

Air Quality

  Air Quality AQ Index Pollutant
Not available.

Snow Depth

Station Depth Elevation

Earthquake Activity

City Distance Mag. Time & Date
Minimum magnitude displayed is 2.5.

Coastal Water Temperatures

Place Temperature

Stations

Nearby Weather Stations

Station Location Temp. Windchill Dew Point Humidity Wind Precip. Elev Updated Type